Time;durP1;ratioP1;P1;durP2;ratioP2;P2;SDS_P1;SDS_P2;PMS_P1;PMS_P2;Temp;Humidity;BMP_temperature;BMP_pressure;BME280_temperature;BME280_humidity;BME280_pressure;Samples;Min_cycle;Max_cycle;Signal;HPM_P1;HPM_P2
2022/04/15 00:00:06;;;;;;;19.48;7.63;;;;;;;7.16;51.65;99697.28;4973897;28;20595;-58
2022/04/15 00:02:32;;;;;;;18.15;7.30;;;;;;;7.17;52.26;99711.88;4974029;28;20045;-58
2022/04/15 00:04:57;;;;;;;16.50;7.88;;;;;;;7.17;51.85;99721.28;4973825;28;20109;-59
2022/04/15 00:07:24;;;;;;;18.48;7.95;;;;;;;7.11;52.91;99713.63;4973850;28;20022;-58
2022/04/15 00:09:49;;;;;;;13.98;7.50;;;;;;;7.09;52.00;99713.63;4974028;28;20427;-59
2022/04/15 00:12:27;;;;;;;16.20;7.72;;;;;;;7.14;51.97;99716.16;4973613;28;20035;-59
2022/04/15 00:14:53;;;;;;;13.35;7.45;;;;;;;7.15;51.78;99707.59;4973773;28;20484;-60
2022/04/15 00:17:18;;;;;;;16.73;7.22;;;;;;;7.15;52.08;99708.44;4980671;28;20081;-59
2022/04/15 00:19:46;;;;;;;18.92;7.95;;;;;;;7.17;52.58;99713.56;4973731;28;20046;-59
2022/04/15 00:22:12;;;;;;;17.60;7.85;;;;;;;7.15;52.59;99707.59;4953605;28;20038;-60
2022/04/15 00:24:37;;;;;;;19.15;8.00;;;;;;;7.17;52.31;99706.72;4962757;28;20030;-60
2022/04/15 00:27:04;;;;;;;19.42;7.85;;;;;;;7.18;51.41;99703.28;4977844;28;20038;-59
2022/04/15 00:29:29;;;;;;;14.77;6.53;;;;;;;7.24;51.92;99694.66;4960041;28;20468;-60
2022/04/15 00:31:55;;;;;;;20.05;7.57;;;;;;;7.17;54.32;99685.22;4980366;28;20118;-59
2022/04/15 00:34:20;;;;;;;14.57;6.40;;;;;;;7.16;53.43;99688.69;4977554;28;20118;-59
2022/04/15 00:36:46;;;;;;;13.48;5.75;;;;;;;7.21;52.42;99692.06;4982746;28;20109;-59
2022/04/15 00:39:11;;;;;;;14.38;7.45;;;;;;;7.20;52.67;99687.81;4996971;28;20054;-59
2022/04/15 00:41:40;;;;;;;12.95;6.40;;;;;;;7.23;54.26;99698.94;4996845;28;20023;-59
2022/04/15 00:44:06;;;;;;;12.25;6.25;;;;;;;7.20;53.54;99690.38;4996782;28;20053;-58
2022/04/15 00:46:32;;;;;;;12.25;5.80;;;;;;;7.19;54.12;99696.41;4996979;28;20026;-58
2022/04/15 00:48:57;;;;;;;13.73;5.43;;;;;;;7.19;53.19;99694.66;4983538;28;20047;-58
2022/04/15 00:51:23;;;;;;;17.55;5.70;;;;;;;7.19;53.05;99697.25;4970475;28;20070;-59
2022/04/15 00:53:50;;;;;;;9.05;5.15;;;;;;;7.19;53.16;99693.81;4976851;28;20034;-58
2022/04/15 00:56:16;;;;;;;13.57;5.60;;;;;;;7.17;52.79;99699.00;4977204;28;20030;-59
2022/04/15 00:58:45;;;;;;;14.20;5.25;;;;;;;6.95;53.17;99680.25;4977084;28;20034;-59
2022/04/15 01:01:10;;;;;;;18.25;6.50;;;;;;;7.14;52.74;99685.25;4976702;28;20091;-58
2022/04/15 01:03:37;;;;;;;13.68;5.50;;;;;;;7.17;52.38;99682.66;4959548;28;20515;-59
2022/04/15 01:06:05;;;;;;;12.10;5.07;;;;;;;7.21;53.86;99704.94;4977110;28;20031;-59
2022/04/15 01:08:31;;;;;;;11.57;5.07;;;;;;;6.89;53.17;99634.81;4995823;28;20049;-58
2022/04/15 01:10:58;;;;;;;13.07;4.93;;;;;;;7.23;53.46;99692.94;4996464;28;20076;-59
2022/04/15 01:13:25;;;;;;;14.52;5.60;;;;;;;7.32;51.85;99692.84;4976052;28;20369;-59
2022/04/15 01:15:53;;;;;;;13.52;5.38;;;;;;;7.27;52.03;99692.06;4968748;28;20026;-59
2022/04/15 01:18:19;;;;;;;15.18;5.88;;;;;;;7.29;51.98;99687.72;4977579;28;20046;-59
2022/04/15 01:20:48;;;;;;;17.60;7.40;;;;;;;7.16;52.19;99675.81;4969945;28;20019;-58
2022/04/15 01:23:13;;;;;;;21.27;6.68;;;;;;;7.23;52.58;99690.34;4993197;28;20546;-59
2022/04/15 01:25:39;;;;;;;20.10;6.60;;;;;;;7.24;53.92;99694.66;4979796;28;20030;-58
2022/04/15 01:28:05;;;;;;;18.23;8.07;;;;;;;7.22;53.30;99691.22;4976416;28;20034;-58
2022/04/15 01:30:31;;;;;;;25.17;9.20;;;;;;;7.22;52.74;99689.47;4979255;28;20057;-58
2022/04/15 01:32:57;;;;;;;23.58;9.95;;;;;;;7.20;53.47;99686.09;4975887;28;20023;-58
2022/04/15 01:35:22;;;;;;;23.25;9.63;;;;;;;7.23;52.35;99690.34;4975548;28;20050;-59
2022/04/15 01:37:49;;;;;;;26.38;9.52;;;;;;;7.24;53.08;99680.03;4959050;28;20476;-60
2022/04/15 01:40:16;;;;;;;24.60;10.88;;;;;;;7.24;53.15;99697.22;4976423;28;20069;-59
2022/04/15 01:42:44;;;;;;;23.25;10.68;;;;;;;6.88;53.24;99625.41;4976055;28;20045;-59
2022/04/15 01:45:11;;;;;;;24.77;10.15;;;;;;;7.22;54.06;99668.88;4976555;28;20146;-60
2022/04/15 01:47:37;;;;;;;22.35;10.02;;;;;;;7.25;53.55;99678.31;4957310;29;20023;-59
2022/04/15 01:50:07;;;;;;;27.75;10.82;;;;;;;6.95;53.72;99628.75;4971684;28;20031;-59
2022/04/15 01:52:33;;;;;;;24.73;10.15;;;;;;;7.28;53.36;99667.13;4976221;28;20030;-59
2022/04/15 01:54:59;;;;;;;21.67;9.73;;;;;;;7.27;51.79;99671.44;4982280;28;20037;-59
2022/04/15 01:57:25;;;;;;;21.58;9.93;;;;;;;7.19;52.25;99658.59;4995349;28;20022;-59
2022/04/15 01:59:51;;;;;;;19.73;9.38;;;;;;;7.28;52.00;99674.88;4977903;28;20550;-58
2022/04/15 02:02:17;;;;;;;18.90;8.95;;;;;;;7.29;52.77;99664.53;4995180;28;20558;-59
2022/04/15 02:04:42;;;;;;;16.83;9.43;;;;;;;7.29;51.88;99666.28;4971483;28;20031;-58
2022/04/15 02:07:08;;;;;;;22.08;9.20;;;;;;;7.22;52.29;99645.69;4971624;28;20034;-58
2022/04/15 02:09:34;;;;;;;22.75;9.05;;;;;;;7.19;52.78;99655.19;4989493;28;20031;-58
2022/04/15 02:11:59;;;;;;;20.08;8.23;;;;;;;7.31;52.80;99659.38;4956302;29;20106;-58
2022/04/15 02:14:25;;;;;;;16.00;8.25;;;;;;;7.27;52.38;99656.00;4991781;28;20117;-58
2022/04/15 02:16:53;;;;;;;15.55;7.93;;;;;;;7.33;51.68;99665.38;4988899;28;20488;-58
2022/04/15 02:19:22;;;;;;;18.02;7.85;;;;;;;7.28;52.23;99669.72;4984361;28;20022;-58
2022/04/15 02:21:48;;;;;;;13.82;6.95;;;;;;;7.26;51.82;99660.25;4978421;28;20039;-59
2022/04/15 02:24:14;;;;;;;15.30;6.70;;;;;;;7.30;51.82;99662.84;4975579;28;20034;-59
2022/04/15 02:26:43;;;;;;;13.80;6.13;;;;;;;7.31;51.64;99661.94;4995061;28;20137;-59
2022/04/15 02:29:08;;;;;;;13.23;6.00;;;;;;;7.28;51.40;99659.41;4995152;28;20383;-60
2022/04/15 02:31:34;;;;;;;13.77;5.93;;;;;;;7.05;53.59;99620.13;4983693;28;20089;-59
2022/04/15 02:34:00;;;;;;;14.05;5.80;;;;;;;7.28;52.56;99646.53;4975265;28;20027;-60
2022/04/15 02:36:25;;;;;;;11.98;6.72;;;;;;;7.29;53.07;99658.53;4975476;28;20027;-60
2022/04/15 02:38:51;;;;;;;18.40;7.13;;;;;;;7.30;53.01;99655.94;4975360;28;20035;-60
2022/04/15 02:41:17;;;;;;;11.65;6.70;;;;;;;7.26;51.91;99654.28;4975221;28;20023;-59
2022/04/15 02:43:42;;;;;;;13.35;5.80;;;;;;;7.23;52.23;99659.44;4975187;28;20057;-60
2022/04/15 02:46:09;;;;;;;14.77;5.68;;;;;;;7.28;52.20;99683.44;4974855;28;20027;-60
2022/04/15 02:48:36;;;;;;;13.52;5.53;;;;;;;7.27;52.20;99666.28;4974933;28;20456;-60
2022/04/15 02:51:02;;;;;;;16.00;5.43;;;;;;;7.25;53.11;99658.56;4975026;28;20034;-59
2022/04/15 02:53:30;;;;;;;8.32;4.82;;;;;;;7.25;52.35;99657.69;4974712;28;20031;-59
2022/04/15 02:55:56;;;;;;;11.57;4.60;;;;;;;7.16;52.43;99648.34;4988592;28;20097;-60
2022/04/15 02:58:22;;;;;;;10.90;4.75;;;;;;;7.23;52.15;99665.44;4993949;28;20365;-59
2022/04/15 03:00:48;;;;;;;10.27;4.82;;;;;;;7.28;52.75;99664.56;4994081;28;20049;-60
2022/04/15 03:03:14;;;;;;;8.60;4.60;;;;;;;7.28;53.28;99662.81;4994251;28;20077;-60
2022/04/15 03:05:40;;;;;;;7.40;4.50;;;;;;;7.30;53.71;99674.00;4994238;28;20495;-60
2022/04/15 03:08:06;;;;;;;9.77;5.10;;;;;;;7.29;52.84;99672.28;4964480;28;20035;-59
2022/04/15 03:10:32;;;;;;;12.93;4.80;;;;;;;7.25;52.44;99673.16;4965624;28;20034;-60
2022/04/15 03:12:58;;;;;;;9.05;4.88;;;;;;;7.26;53.24;99674.88;4974260;28;20503;-58
2022/04/15 03:15:23;;;;;;;16.55;5.10;;;;;;;7.18;52.79;99662.06;4973297;28;20037;-59
2022/04/15 03:17:49;;;;;;;11.82;4.97;;;;;;;7.29;54.29;99667.13;4970366;28;20476;-59
2022/04/15 03:20:15;;;;;;;13.25;5.57;;;;;;;7.31;54.58;99660.25;4986114;28;20061;-59
2022/04/15 03:22:42;;;;;;;25.38;6.53;;;;;;;7.20;53.23;99633.72;4973929;28;20034;-60
2022/04/15 03:25:18;;;;;;;15.23;6.88;;;;;;;7.45;54.16;99675.56;4973760;28;20035;-60
2022/04/15 03:27:45;;;;;;;15.50;5.38;;;;;;;7.50;53.54;99660.94;4973896;28;20076;-60
2022/04/15 03:30:11;;;;;;;10.95;5.45;;;;;;;7.46;53.19;99643.78;4956637;28;20030;-60
2022/04/15 03:32:50;;;;;;;9.40;5.03;;;;;;;7.18;54.15;99600.25;4975913;28;20027;-59
2022/04/15 03:35:20;;;;;;;11.38;5.07;;;;;;;7.56;53.07;99660.84;4973838;28;20082;-59
2022/04/15 03:37:46;;;;;;;13.23;6.20;;;;;;;7.57;52.69;99657.41;4985466;28;20026;-59
2022/04/15 03:40:12;;;;;;;12.25;5.50;;;;;;;7.63;52.74;99647.94;4985544;28;20479;-60
2022/04/15 03:42:51;;;;;;;15.68;5.90;;;;;;;7.32;53.98;99594.13;4973387;28;20047;-60
2022/04/15 03:45:19;;;;;;;21.60;6.45;;;;;;;7.73;54.40;99665.84;4973960;28;20023;-59
2022/04/15 03:47:49;;;;;;;25.88;6.80;;;;;;;7.75;54.42;99663.25;4974026;28;20471;-61
2022/04/15 03:50:15;;;;;;;11.95;5.88;;;;;;;7.76;53.75;99662.41;4973400;28;20043;-60
2022/04/15 03:52:45;;;;;;;16.42;5.90;;;;;;;7.44;53.23;99591.44;4973199;28;20030;-60
2022/04/15 03:55:11;;;;;;;15.90;6.53;;;;;;;7.88;53.56;99661.41;4973234;28;20475;-60
2022/04/15 03:57:40;;;;;;;12.05;5.70;;;;;;;7.94;52.68;99664.78;4972775;28;20023;-60
2022/04/15 04:00:07;;;;;;;20.23;6.53;;;;;;;7.97;53.25;99643.25;4973439;28;20395;-60
2022/04/15 04:02:33;;;;;;;15.60;5.80;;;;;;;8.19;52.39;99655.91;4973303;28;20468;-60
2022/04/15 04:04:59;;;;;;;11.88;6.43;;;;;;;8.25;52.10;99651.53;4969770;28;20039;-60
2022/04/15 04:07:25;;;;;;;13.15;5.88;;;;;;;8.18;52.05;99649.91;4971837;28;20377;-60
2022/04/15 04:09:50;;;;;;;12.57;5.65;;;;;;;8.42;54.04;99651.31;4984180;28;20034;-59
2022/04/15 04:12:16;;;;;;;17.00;6.32;;;;;;;8.61;55.68;99651.09;4936779;29;20389;-59
2022/04/15 04:14:41;;;;;;;17.05;7.10;;;;;;;8.74;52.47;99644.88;4972307;28;20027;-58
2022/04/15 04:17:07;;;;;;;15.75;6.70;;;;;;;8.85;51.24;99630.94;4972991;28;20033;-60
2022/04/15 04:19:32;;;;;;;17.02;6.30;;;;;;;8.90;51.22;99642.91;4982687;28;20034;-60
2022/04/15 04:21:58;;;;;;;15.65;6.85;;;;;;;8.96;49.43;99637.66;4974765;28;20049;-59
2022/04/15 04:24:23;;;;;;;22.45;7.05;;;;;;;8.91;48.77;99639.44;4973167;28;20127;-60
2022/04/15 04:26:49;;;;;;;17.08;6.47;;;;;;;9.04;49.39;99632.38;4973136;28;20468;-59
2022/04/15 04:29:14;;;;;;;19.02;5.82;;;;;;;9.18;47.92;99631.28;4988424;28;20033;-60
2022/04/15 04:31:40;;;;;;;11.73;6.00;;;;;;;9.24;49.49;99631.19;4981339;28;20690;-60
2022/04/15 04:34:05;;;;;;;12.73;5.47;;;;;;;9.22;48.02;99627.75;4972953;28;20037;-62
2022/04/15 04:36:31;;;;;;;13.90;5.45;;;;;;;9.29;47.62;99626.78;4973061;28;20037;-60
2022/04/15 04:38:56;;;;;;;13.30;5.53;;;;;;;9.18;47.99;99626.09;4955709;28;20034;-60
2022/04/15 04:41:22;;;;;;;16.20;5.15;;;;;;;9.24;48.01;99629.44;4972958;28;20050;-60
2022/04/15 04:43:48;;;;;;;12.02;4.80;;;;;;;9.31;45.72;99627.63;4972984;28;20459;-62
2022/04/15 04:46:13;;;;;;;13.48;4.75;;;;;;;9.35;46.94;99629.28;4979716;28;20487;-60
2022/04/15 04:48:39;;;;;;;10.35;5.13;;;;;;;9.42;47.79;99636.03;4958301;28;20029;-60
2022/04/15 04:51:04;;;;;;;12.23;5.55;;;;;;;9.47;47.00;99628.19;4981846;28;20117;-60
2022/04/15 04:53:30;;;;;;;15.10;5.57;;;;;;;9.37;46.51;99629.25;4972684;28;20065;-60
2022/04/15 04:55:56;;;;;;;15.05;5.28;;;;;;;9.39;46.08;99630.94;4985249;28;20049;-60
2022/04/15 04:58:21;;;;;;;13.27;4.78;;;;;;;9.32;46.17;99637.94;4991946;28;20026;-60
2022/04/15 05:00:47;;;;;;;12.30;5.13;;;;;;;9.50;45.31;99633.31;4992075;28;20042;-59
2022/04/15 05:03:12;;;;;;;7.53;4.30;;;;;;;9.45;45.17;99628.22;4991594;28;20045;-59
2022/04/15 05:05:38;;;;;;;9.68;5.05;;;;;;;9.59;45.77;99632.28;4976563;28;20037;-59
2022/04/15 05:08:04;;;;;;;15.15;5.32;;;;;;;9.70;46.53;99635.53;4973017;28;20030;-60
2022/04/15 05:10:29;;;;;;;14.75;5.38;;;;;;;9.76;46.19;99634.56;4975475;28;20026;-60
2022/04/15 05:12:55;;;;;;;15.20;5.47;;;;;;;9.72;45.29;99630.31;4975896;28;20031;-60
2022/04/15 05:15:20;;;;;;;11.43;4.80;;;;;;;9.67;44.45;99631.25;4974486;28;20034;-60
2022/04/15 05:17:46;;;;;;;11.02;4.28;;;;;;;9.75;45.04;99633.72;4975823;28;20461;-59
2022/04/15 05:20:11;;;;;;;18.15;5.00;;;;;;;9.81;44.06;99627.59;4987550;28;20039;-60
2022/04/15 05:22:37;;;;;;;16.63;4.93;;;;;;;9.84;43.93;99633.53;4957557;28;20537;-60
2022/04/15 05:25:06;;;;;;;9.70;4.93;;;;;;;9.63;44.17;99579.63;4977325;28;20431;-60
2022/04/15 05:27:32;;;;;;;14.93;5.90;;;;;;;10.01;44.26;99625.44;4976818;28;20022;-60
2022/04/15 05:29:58;;;;;;;16.23;5.05;;;;;;;10.10;44.45;99623.56;4976487;28;20435;-60
2022/04/15 05:32:23;;;;;;;11.35;4.53;;;;;;;10.17;43.65;99618.22;4975269;28;20385;-59
2022/04/15 05:34:49;;;;;;;17.58;5.38;;;;;;;10.33;43.42;99623.94;4975148;28;20034;-60
2022/04/15 05:37:14;;;;;;;15.30;5.32;;;;;;;10.51;43.55;99617.50;4975927;28;20027;-60
2022/04/15 05:39:40;;;;;;;13.75;5.20;;;;;;;10.71;43.33;99613.63;4975818;28;20022;-60
2022/04/15 05:42:06;;;;;;;16.25;5.43;;;;;;;10.71;42.97;99608.44;4974314;28;20038;-59
2022/04/15 05:44:31;;;;;;;19.83;5.57;;;;;;;10.90;42.71;99610.59;4975313;28;20038;-61
2022/04/15 05:46:57;;;;;;;21.48;6.28;;;;;;;10.96;42.91;99613.03;4977920;28;20031;-60
2022/04/15 05:49:24;;;;;;;15.02;5.90;;;;;;;11.08;42.52;99607.56;4971864;28;20110;-60
2022/04/15 05:51:50;;;;;;;18.52;6.07;;;;;;;11.39;41.83;99610.22;4978415;28;20106;-60
2022/04/15 05:54:15;;;;;;;16.58;6.22;;;;;;;11.89;41.13;99608.91;4974965;28;20098;-60
2022/04/15 05:56:41;;;;;;;13.43;5.78;;;;;;;12.43;40.61;99602.19;4975108;28;20042;-59
2022/04/15 05:59:07;;;;;;;19.75;5.63;;;;;;;12.91;39.77;99598.06;4990210;28;20556;-59
2022/04/15 06:01:33;;;;;;;17.45;5.43;;;;;;;13.26;40.28;99607.31;4975677;28;20054;-59
2022/04/15 06:03:59;;;;;;;15.65;5.38;;;;;;;13.31;38.60;99601.97;4973768;28;20062;-61
2022/04/15 06:06:24;;;;;;;16.92;5.25;;;;;;;13.35;38.23;99613.13;4973038;28;20077;-60
2022/04/15 06:08:50;;;;;;;16.75;4.85;;;;;;;13.34;39.88;99603.59;4973435;28;20109;-60
2022/04/15 06:11:16;;;;;;;13.55;4.00;;;;;;;13.56;37.76;99607.19;4973188;28;20105;-61
2022/04/15 06:13:47;;;;;;;12.75;4.32;;;;;;;13.76;38.54;99609.06;4977693;28;20142;-60
2022/04/15 06:16:17;;;;;;;7.03;3.85;;;;;;;13.41;37.20;99553.09;4973236;28;20030;-60
2022/04/15 06:18:43;;;;;;;10.95;3.70;;;;;;;13.71;36.77;99597.13;4957966;28;20743;-59
2022/04/15 06:21:08;;;;;;;16.15;4.18;;;;;;;13.96;36.14;99600.53;4982859;28;20193;-60
2022/04/15 06:23:34;;;;;;;12.00;3.38;;;;;;;14.21;36.77;99602.25;4975583;28;20117;-60
2022/04/15 06:25:59;;;;;;;14.43;3.53;;;;;;;14.40;36.24;99605.00;4978542;28;20042;-61
2022/04/15 06:28:25;;;;;;;8.05;2.63;;;;;;;14.30;35.06;99591.47;4962806;28;20042;-60
2022/04/15 06:30:51;;;;;;;11.27;3.28;;;;;;;14.10;35.42;99594.81;4955778;28;20113;-60
2022/04/15 06:33:20;;;;;;;5.35;2.72;;;;;;;14.01;35.17;99595.19;4971463;28;20062;-60
2022/04/15 06:35:47;;;;;;;5.80;3.30;;;;;;;14.06;36.23;99558.56;4971075;28;20030;-60
2022/04/15 06:38:13;;;;;;;9.40;3.33;;;;;;;14.52;35.52;99585.41;4972361;28;20023;-60
2022/04/15 06:40:40;;;;;;;9.30;3.00;;;;;;;14.57;33.90;99595.69;4970440;28;20027;-60
2022/04/15 06:43:06;;;;;;;8.32;3.22;;;;;;;14.81;35.33;99592.13;4971132;28;20038;-60
2022/04/15 06:45:32;;;;;;;9.27;3.50;;;;;;;14.81;34.56;99586.91;4972092;28;20038;-59
2022/04/15 06:47:58;;;;;;;7.53;3.17;;;;;;;14.92;33.70;99583.00;4971742;28;20040;-60
2022/04/15 06:50:24;;;;;;;10.00;3.10;;;;;;;14.54;33.21;99588.81;4971660;28;20029;-60
2022/04/15 06:52:50;;;;;;;15.48;3.33;;;;;;;14.91;34.19;99582.16;4973985;28;20027;-60
2022/04/15 06:55:16;;;;;;;7.30;3.10;;;;;;;14.98;33.74;99567.97;4970425;28;20034;-61
2022/04/15 06:57:44;;;;;;;7.05;2.60;;;;;;;15.22;33.49;99583.50;4973115;28;20329;-61
2022/04/15 07:00:14;;;;;;;5.80;2.80;;;;;;;15.34;31.98;99569.91;4990572;28;20134;-60
2022/04/15 07:02:41;;;;;;;9.65;2.97;;;;;;;15.96;32.22;99571.59;4967849;28;20420;-60
2022/04/15 07:05:09;;;;;;;7.75;3.03;;;;;;;16.37;31.79;99567.09;4952365;29;20027;-60
2022/04/15 07:07:38;;;;;;;6.68;3.10;;;;;;;16.59;30.60;99567.81;4963826;28;20034;-61
2022/04/15 07:10:05;;;;;;;8.27;2.90;;;;;;;17.07;29.76;99574.19;4974149;28;20030;-59
2022/04/15 07:12:31;;;;;;;5.88;3.00;;;;;;;17.66;30.77;99558.97;4973570;28;20165;-59
2022/04/15 07:14:57;;;;;;;8.02;3.28;;;;;;;17.72;28.97;99561.25;4974003;28;20531;-60
2022/04/15 07:17:24;;;;;;;7.50;2.50;;;;;;;18.16;28.70;99561.59;4973741;28;20848;-60
2022/04/15 07:19:49;;;;;;;10.10;3.42;;;;;;;18.37;27.21;99544.69;4973551;28;20027;-60
2022/04/15 07:22:19;;;;;;;6.40;3.13;;;;;;;18.56;28.32;99556.75;4965273;28;20045;-61
2022/04/15 07:24:45;;;;;;;11.27;3.15;;;;;;;18.47;26.51;99560.75;4973833;28;20039;-61
2022/04/15 07:27:11;;;;;;;11.90;3.63;;;;;;;17.81;26.85;99543.34;4973939;28;20027;-60
2022/04/15 07:29:37;;;;;;;7.45;3.03;;;;;;;17.88;27.62;99552.56;4973575;28;20122;-60
2022/04/15 07:32:03;;;;;;;5.05;2.20;;;;;;;17.68;27.77;99557.09;4973292;28;20037;-61
2022/04/15 07:34:29;;;;;;;7.65;2.50;;;;;;;17.97;27.80;99551.25;4973342;28;20026;-60
2022/04/15 07:36:55;;;;;;;6.95;2.65;;;;;;;17.96;26.79;99547.81;4973265;28;20399;-60
2022/04/15 07:39:22;;;;;;;6.28;2.45;;;;;;;17.61;27.97;99550.50;4973851;28;20109;-60
2022/04/15 07:41:48;;;;;;;5.75;1.80;;;;;;;17.58;26.86;99546.25;4973279;28;20026;-60
2022/04/15 07:44:14;;;;;;;4.80;1.92;;;;;;;17.78;28.31;99546.97;4973512;28;20546;-59
2022/04/15 07:46:42;;;;;;;15.38;4.72;;;;;;;17.65;28.21;99548.56;4973406;28;20039;-60
2022/04/15 07:49:08;;;;;;;11.00;2.20;;;;;;;17.08;26.20;99550.56;4973377;28;20038;-60
2022/04/15 07:51:35;;;;;;;4.25;2.10;;;;;;;17.13;27.07;99549.50;4973269;28;20042;-60
2022/04/15 07:54:02;;;;;;;4.32;2.22;;;;;;;16.63;27.12;99541.47;4972975;28;20575;-58
2022/04/15 07:56:27;;;;;;;6.32;2.08;;;;;;;16.43;28.59;99552.84;4973447;28;20038;-60
2022/04/15 07:58:53;;;;;;;4.45;1.88;;;;;;;16.85;27.80;99548.25;4972989;28;20031;-59
2022/04/15 08:01:20;;;;;;;9.77;2.17;;;;;;;16.30;27.79;99539.53;4972815;28;20074;-61
2022/04/15 08:03:46;;;;;;;5.88;2.00;;;;;;;16.70;27.77;99549.84;4972967;28;20575;-60
2022/04/15 08:06:13;;;;;;;6.93;2.03;;;;;;;16.70;28.22;99535.00;4973291;28;20027;-59
2022/04/15 08:08:39;;;;;;;5.90;2.00;;;;;;;16.67;29.85;99540.34;4973502;28;20102;-60
2022/04/15 08:11:04;;;;;;;4.35;1.80;;;;;;;16.59;29.20;99542.53;4985358;28;20519;-60
2022/04/15 08:13:30;;;;;;;6.05;1.75;;;;;;;16.15;28.53;99538.50;4976454;28;20114;-60
2022/04/15 08:15:56;;;;;;;4.97;1.55;;;;;;;16.44;29.04;99530.19;4956992;28;20023;-60
2022/04/15 08:18:22;;;;;;;4.95;1.75;;;;;;;15.97;28.64;99519.28;4973241;28;20042;-60
2022/04/15 08:20:50;;;;;;;8.77;2.53;;;;;;;15.98;29.44;99526.22;4965359;28;20020;-60
2022/04/15 08:23:17;;;;;;;12.93;2.85;;;;;;;15.48;28.96;99517.13;4972653;28;20038;-60
2022/04/15 08:25:44;;;;;;;6.40;2.10;;;;;;;16.10;30.03;99530.00;4964681;28;20030;-59
2022/04/15 08:28:10;;;;;;;4.43;1.98;;;;;;;16.07;28.58;99519.72;4966954;28;20078;-60
2022/04/15 08:30:37;;;;;;;7.47;1.95;;;;;;;16.22;29.10;99524.22;4953098;28;20050;-61
2022/04/15 08:33:06;;;;;;;5.05;1.95;;;;;;;16.34;29.17;99525.38;4972633;28;20042;-60
2022/04/15 08:35:33;;;;;;;4.13;2.05;;;;;;;16.20;28.39;99527.81;4977335;28;20047;-61
2022/04/15 08:37:59;;;;;;;51.67;5.78;;;;;;;15.97;29.83;99502.78;4961079;28;20023;-60
2022/04/15 08:40:35;;;;;;;4.63;1.90;;;;;;;16.16;30.31;99523.66;4962278;28;20039;-60
2022/04/15 08:43:04;;;;;;;5.25;1.60;;;;;;;15.91;29.23;99483.03;4954542;28;20062;-59
2022/04/15 08:45:30;;;;;;;6.32;1.83;;;;;;;16.03;28.80;99518.16;4975141;28;20114;-59
2022/04/15 08:47:59;;;;;;;1.85;1.60;;;;;;;16.11;30.02;99482.06;4984621;28;20026;-59
2022/04/15 08:50:27;;;;;;;5.40;1.98;;;;;;;15.94;29.41;99511.59;4985039;28;20500;-59
2022/04/15 08:53:03;;;;;;;4.25;1.90;;;;;;;16.19;28.90;99510.47;4975945;28;20037;-59
2022/04/15 08:55:29;;;;;;;7.00;1.70;;;;;;;16.24;29.66;99513.69;4975144;28;20412;-60
2022/04/15 08:57:56;;;;;;;5.97;2.50;;;;;;;15.85;30.08;99458.03;4975645;28;20049;-60
2022/04/15 09:00:24;;;;;;;6.57;2.65;;;;;;;15.71;30.29;99463.88;4976589;28;20076;-60
2022/04/15 09:02:51;;;;;;;3.90;1.73;;;;;;;15.91;31.56;99497.84;4977088;28;20035;-60
2022/04/15 09:05:35;;;;;;;5.82;2.28;;;;;;;16.09;32.68;99501.34;4977148;28;20045;-60
2022/04/15 09:08:10;;;;;;;9.43;2.40;;;;;;;16.11;30.91;99513.44;4976795;28;20483;-60
2022/04/15 09:10:36;;;;;;;4.80;1.98;;;;;;;15.84;32.20;99505.13;4976962;28;20109;-59
2022/04/15 09:13:05;;;;;;;6.93;2.30;;;;;;;16.09;31.02;99510.06;4978812;28;20486;-60
2022/04/15 09:15:31;;;;;;;18.15;2.45;;;;;;;15.84;32.69;99512.94;4996283;28;20472;-61
2022/04/15 09:18:00;;;;;;;8.73;2.38;;;;;;;15.70;31.73;99510.94;4971374;28;20039;-59
2022/04/15 09:20:31;;;;;;;6.35;2.30;;;;;;;15.36;31.97;99458.50;4958641;28;20106;-60
2022/04/15 09:23:08;;;;;;;6.55;2.40;;;;;;;15.79;31.78;99504.47;4973124;28;20030;-60
2022/04/15 09:25:35;;;;;;;9.20;2.22;;;;;;;15.49;32.05;99452.72;4974481;28;20035;-60
2022/04/15 09:28:01;;;;;;;5.63;2.13;;;;;;;15.64;31.37;99499.00;4974975;28;20050;-59
2022/04/15 09:30:39;;;;;;;7.32;2.22;;;;;;;15.56;32.37;99502.88;4975308;28;20062;-60
2022/04/15 09:33:04;;;;;;;6.85;2.65;;;;;;;15.27;32.72;99500.66;4976364;28;20038;-60
2022/04/15 09:35:30;;;;;;;5.22;2.08;;;;;;;15.05;32.81;99505.09;4962906;28;20031;-60
2022/04/15 09:38:04;;;;;;;7.50;2.08;;;;;;;14.54;33.50;99447.25;4976335;28;20066;-60
2022/04/15 09:40:35;;;;;;;6.32;2.58;;;;;;;14.92;33.70;99500.44;4959148;28;20035;-60
2022/04/15 09:43:03;;;;;;;6.97;2.50;;;;;;;15.00;34.25;99497.47;4976194;28;20073;-60
2022/04/15 09:45:34;;;;;;;6.53;2.50;;;;;;;14.94;34.42;99513.41;4976204;28;20105;-59
2022/04/15 09:48:08;;;;;;;7.23;2.53;;;;;;;14.93;33.64;99486.44;4976257;28;20031;-60
2022/04/15 09:50:42;;;;;;;6.00;2.05;;;;;;;14.64;34.98;99509.38;4975761;28;20049;-60
2022/04/15 09:53:19;;;;;;;7.03;2.20;;;;;;;13.87;35.00;99431.69;4975909;28;20035;-60
2022/04/15 09:55:50;;;;;;;7.00;2.60;;;;;;;14.34;34.42;99488.00;4983442;28;20109;-60
2022/04/15 09:58:21;;;;;;;6.35;2.15;;;;;;;14.43;35.69;99492.81;4995455;28;20062;-60
2022/04/15 10:00:51;;;;;;;6.32;2.20;;;;;;;14.51;35.12;99479.50;4993050;28;20050;-60
2022/04/15 10:03:27;;;;;;;6.78;2.35;;;;;;;14.51;34.70;99497.75;4956495;29;20063;-59
2022/04/15 10:05:55;;;;;;;6.70;2.33;;;;;;;14.19;35.36;99446.94;4991083;28;20092;-60
2022/04/15 10:08:22;;;;;;;5.70;1.90;;;;;;;14.14;35.73;99460.16;4995003;28;20026;-60
2022/04/15 10:10:49;;;;;;;5.97;2.20;;;;;;;14.47;36.48;99501.38;4977489;28;20026;-60
2022/04/15 10:13:15;;;;;;;5.80;2.13;;;;;;;14.03;35.76;99498.78;4994824;28;20118;-60
2022/04/15 10:15:41;;;;;;;4.68;2.35;;;;;;;14.28;35.49;99488.22;4994891;28;20144;-61
2022/04/15 10:18:10;;;;;;;7.57;2.00;;;;;;;14.19;35.76;99494.66;4994736;28;20435;-60
2022/04/15 10:20:39;;;;;;;6.07;2.00;;;;;;;14.21;36.54;99500.66;4972738;28;20027;-62
2022/04/15 10:23:11;;;;;;;5.80;2.30;;;;;;;14.22;37.08;99491.09;4955486;28;20118;-60
2022/04/15 10:25:38;;;;;;;4.72;2.40;;;;;;;13.87;37.56;99503.72;4983136;28;20034;-60
2022/04/15 10:28:11;;;;;;;6.63;2.45;;;;;;;14.03;38.58;99504.81;4991528;28;20035;-60
2022/04/15 10:30:51;;;;;;;8.90;2.90;;;;;;;14.14;37.14;99492.25;4975512;28;20038;-60
2022/04/15 10:33:31;;;;;;;7.05;2.08;;;;;;;13.95;36.56;99486.91;4975012;28;20054;-60
2022/04/15 10:36:09;;;;;;;7.80;1.90;;;;;;;13.85;37.05;99449.09;4980633;28;20484;-59
2022/04/15 10:38:35;;;;;;;3.58;1.73;;;;;;;13.69;37.99;99489.66;4975288;28;20049;-60
2022/04/15 10:41:16;;;;;;;6.03;2.28;;;;;;;13.68;39.28;99511.38;4975107;28;20038;-60
2022/04/15 10:43:56;;;;;;;7.60;1.97;;;;;;;13.74;39.75;99505.94;4975015;28;20476;-59
2022/04/15 10:46:31;;;;;;;2.72;1.80;;;;;;;13.24;38.89;99458.28;4974825;28;20057;-60
2022/04/15 10:48:58;;;;;;;6.60;2.13;;;;;;;13.54;38.67;99512.72;4975331;28;20046;-60
2022/04/15 10:51:29;;;;;;;4.07;1.80;;;;;;;13.55;38.12;99506.63;4974485;28;20510;-60
2022/04/15 10:53:55;;;;;;;5.47;1.75;;;;;;;13.58;39.42;99514.31;4975008;28;20152;-60
2022/04/15 10:56:23;;;;;;;3.10;1.85;;;;;;;13.42;40.34;99518.38;4974779;28;20027;-59
2022/04/15 11:01:59;;;;;;;4.25;2.10;;;;;;;13.48;39.98;99506.91;4989903;28;20055;-60
2022/04/15 11:04:26;;;;;;;5.22;1.88;;;;;;;13.34;41.34;99513.41;4994180;28;20034;-60
2022/04/15 11:06:54;;;;;;;4.35;2.17;;;;;;;13.46;42.12;99514.75;4993638;28;20117;-60
2022/04/15 11:09:26;;;;;;;5.15;1.80;;;;;;;13.37;41.90;99502.09;4976603;28;20387;-60
2022/04/15 11:11:53;;;;;;;6.05;1.75;;;;;;;13.45;42.41;99502.66;4993995;28;20058;-59
2022/04/15 11:14:32;;;;;;;5.63;2.25;;;;;;;13.08;42.52;99498.72;4993672;28;20030;-59
2022/04/15 11:16:59;;;;;;;5.57;1.98;;;;;;;13.24;42.48;99504.22;4993801;28;20030;-59
2022/04/15 11:19:26;;;;;;;4.22;1.58;;;;;;;13.28;41.76;99495.41;4992933;28;20032;-59
2022/04/15 11:21:53;;;;;;;4.63;2.30;;;;;;;13.43;41.93;99497.50;4993122;28;20025;-59
2022/04/15 11:24:32;;;;;;;3.72;1.60;;;;;;;13.40;42.70;99494.19;5013456;28;20030;-59
2022/04/15 11:27:03;;;;;;;4.57;1.83;;;;;;;13.29;41.77;99487.56;4977609;28;20041;-59
2022/04/15 11:29:35;;;;;;;2.45;1.80;;;;;;;13.17;42.10;99492.34;4994027;28;20033;-59
2022/04/15 11:32:09;;;;;;;7.47;1.83;;;;;;;13.25;41.60;99490.31;4993326;28;20030;-59
2022/04/15 11:34:35;;;;;;;4.70;2.05;;;;;;;13.14;41.97;99488.13;4993313;28;20093;-59